sensor_id;sensor_type;location;lat;lon;timestamp;pressure;altitude;pressure_sealevel;temperature;humidity
34658;BME280;20865;43.312;27.152;2022-09-29T00:00:54;99475.08;;;22.67;48.94
34658;BME280;20865;43.312;27.152;2022-09-29T00:03:23;99471.84;;;22.67;49.15
34658;BME280;20865;43.312;27.152;2022-09-29T00:05:52;99475.48;;;22.62;49.34
34658;BME280;20865;43.312;27.152;2022-09-29T00:08:23;99473.99;;;22.64;49.54
34658;BME280;20865;43.312;27.152;2022-09-29T00:10:51;99469.19;;;22.62;49.33
34658;BME280;20865;43.312;27.152;2022-09-29T00:13:19;99472.76;;;22.62;48.98
34658;BME280;20865;43.312;27.152;2022-09-29T00:15:57;99470.48;;;22.57;48.85
34658;BME280;20865;43.312;27.152;2022-09-29T00:18:25;99467.53;;;22.55;48.64
34658;BME280;20865;43.312;27.152;2022-09-29T00:21:02;99473.48;;;22.54;48.84
34658;BME280;20865;43.312;27.152;2022-09-29T00:23:31;99472.97;;;22.55;48.86
34658;BME280;20865;43.312;27.152;2022-09-29T00:26:02;99467.69;;;22.53;48.74
34658;BME280;20865;43.312;27.152;2022-09-29T00:28:30;99460.08;;;22.47;48.84
34658;BME280;20865;43.312;27.152;2022-09-29T00:30:59;99464.90;;;22.49;48.65
34658;BME280;20865;43.312;27.152;2022-09-29T00:33:35;99463.38;;;22.51;48.55
34658;BME280;20865;43.312;27.152;2022-09-29T00:36:06;99460.08;;;22.47;48.75
34658;BME280;20865;43.312;27.152;2022-09-29T00:38:34;99449.83;;;22.45;48.83
34658;BME280;20865;43.312;27.152;2022-09-29T00:41:03;99453.72;;;22.43;48.69
34658;BME280;20865;43.312;27.152;2022-09-29T00:46:24;99450.27;;;22.41;48.78
34658;BME280;20865;43.312;27.152;2022-09-29T00:48:48;99450.77;;;22.40;48.80
34658;BME280;20865;43.312;27.152;2022-09-29T00:51:17;99459.72;;;22.37;49.09
34658;BME280;20865;43.312;27.152;2022-09-29T00:53:45;99454.21;;;22.32;49.38
34658;BME280;20865;43.312;27.152;2022-09-29T00:56:15;99460.43;;;22.29;49.24
34658;BME280;20865;43.312;27.152;2022-09-29T00:58:50;99451.03;;;22.27;48.75
34658;BME280;20865;43.312;27.152;2022-09-29T01:01:23;99458.77;;;22.22;48.53
34658;BME280;20865;43.312;27.152;2022-09-29T01:03:55;99462.34;;;22.23;48.50
34658;BME280;20865;43.312;27.152;2022-09-29T01:06:25;99455.20;;;22.22;48.52
34658;BME280;20865;43.312;27.152;2022-09-29T01:11:25;99449.53;;;22.19;48.76
34658;BME280;20865;43.312;27.152;2022-09-29T01:13:53;99448.45;;;22.16;48.87
34658;BME280;20865;43.312;27.152;2022-09-29T01:16:23;99466.37;;;22.13;48.81
34658;BME280;20865;43.312;27.152;2022-09-29T01:18:51;99461.98;;;22.06;48.64
34658;BME280;20865;43.312;27.152;2022-09-29T01:34:33;99491.63;;;21.84;48.52
34658;BME280;20865;43.312;27.152;2022-09-29T01:42:39;99488.17;;;21.82;49.10
34658;BME280;20865;43.312;27.152;2022-09-29T01:45:20;99484.75;;;21.80;49.38
34658;BME280;20865;43.312;27.152;2022-09-29T01:47:49;99481.95;;;21.76;49.90
34658;BME280;20865;43.312;27.152;2022-09-29T01:50:20;99474.14;;;21.77;50.05
34658;BME280;20865;43.312;27.152;2022-09-29T01:52:50;99476.23;;;21.79;49.98
34658;BME280;20865;43.312;27.152;2022-09-29T01:55:20;99475.73;;;21.80;50.40
34658;BME280;20865;43.312;27.152;2022-09-29T01:57:53;99478.57;;;21.78;50.04
34658;BME280;20865;43.312;27.152;2022-09-29T02:00:22;99467.85;;;21.77;49.92
34658;BME280;20865;43.312;27.152;2022-09-29T02:05:45;99476.51;;;21.76;49.60
34658;BME280;20865;43.312;27.152;2022-09-29T02:11:03;99473.98;;;21.69;49.13
34658;BME280;20865;43.312;27.152;2022-09-29T02:13:34;99474.33;;;21.70;49.11
34658;BME280;20865;43.312;27.152;2022-09-29T02:16:02;99464.31;;;21.71;49.29
34658;BME280;20865;43.312;27.152;2022-09-29T02:18:33;99458.80;;;21.67;49.40
34658;BME280;20865;43.312;27.152;2022-09-29T02:21:01;99456.44;;;21.68;49.35
34658;BME280;20865;43.312;27.152;2022-09-29T02:23:28;99459.66;;;21.67;49.28
34658;BME280;20865;43.312;27.152;2022-09-29T02:25:57;99457.20;;;21.64;49.34
34658;BME280;20865;43.312;27.152;2022-09-29T02:28:26;99459.06;;;21.63;48.95
34658;BME280;20865;43.312;27.152;2022-09-29T02:30:54;99462.05;;;21.60;48.78
34658;BME280;20865;43.312;27.152;2022-09-29T02:33:24;99450.75;;;21.55;48.87
34658;BME280;20865;43.312;27.152;2022-09-29T02:36:07;99464.34;;;21.55;48.75
34658;BME280;20865;43.312;27.152;2022-09-29T02:38:56;99459.80;;;21.50;48.86
34658;BME280;20865;43.312;27.152;2022-09-29T02:41:31;99461.03;;;21.52;48.87
34658;BME280;20865;43.312;27.152;2022-09-29T02:44:23;99464.38;;;21.50;48.83
34658;BME280;20865;43.312;27.152;2022-09-29T02:49:43;99458.53;;;21.39;47.98
34658;BME280;20865;43.312;27.152;2022-09-29T02:52:15;99465.94;;;21.37;47.84
34658;BME280;20865;43.312;27.152;2022-09-29T02:57:41;99461.51;;;21.30;48.32
34658;BME280;20865;43.312;27.152;2022-09-29T03:00:06;99465.23;;;21.29;48.45
34658;BME280;20865;43.312;27.152;2022-09-29T03:02:36;99465.64;;;21.25;48.64
34658;BME280;20865;43.312;27.152;2022-09-29T03:05:07;99474.56;;;21.21;49.03
34658;BME280;20865;43.312;27.152;2022-09-29T03:07:36;99463.95;;;21.18;49.31
34658;BME280;20865;43.312;27.152;2022-09-29T03:10:06;99473.61;;;21.16;49.94
34658;BME280;20865;43.312;27.152;2022-09-29T03:12:34;99467.80;;;21.15;50.15
34658;BME280;20865;43.312;27.152;2022-09-29T03:15:03;99470.59;;;21.20;50.97
34658;BME280;20865;43.312;27.152;2022-09-29T03:17:32;99474.64;;;21.25;51.04
34658;BME280;20865;43.312;27.152;2022-09-29T03:20:00;99473.05;;;21.23;50.50
34658;BME280;20865;43.312;27.152;2022-09-29T03:22:28;99465.88;;;21.27;50.18
34658;BME280;20865;43.312;27.152;2022-09-29T03:24:55;99473.52;;;21.28;50.35
34658;BME280;20865;43.312;27.152;2022-09-29T03:27:23;99471.67;;;21.28;50.43
34658;BME280;20865;43.312;27.152;2022-09-29T03:29:50;99472.38;;;21.30;49.93
34658;BME280;20865;43.312;27.152;2022-09-29T03:32:18;99472.17;;;21.28;49.69
34658;BME280;20865;43.312;27.152;2022-09-29T03:34:45;99476.24;;;21.28;49.83
34658;BME280;20865;43.312;27.152;2022-09-29T03:37:13;99475.39;;;21.27;49.82
34658;BME280;20865;43.312;27.152;2022-09-29T03:39:40;99483.15;;;21.26;49.69
34658;BME280;20865;43.312;27.152;2022-09-29T03:42:08;99473.91;;;21.23;50.03
34658;BME280;20865;43.312;27.152;2022-09-29T03:44:36;99481.08;;;21.24;50.43
34658;BME280;20865;43.312;27.152;2022-09-29T03:47:03;99477.09;;;21.28;50.02
34658;BME280;20865;43.312;27.152;2022-09-29T03:49:31;99483.03;;;21.28;50.05
34658;BME280;20865;43.312;27.152;2022-09-29T03:51:59;99486.10;;;21.29;50.08
34658;BME280;20865;43.312;27.152;2022-09-29T03:54:27;99478.96;;;21.28;50.31
34658;BME280;20865;43.312;27.152;2022-09-29T03:56:55;99487.02;;;21.24;50.62
34658;BME280;20865;43.312;27.152;2022-09-29T03:59:22;99477.22;;;21.27;50.76
34658;BME280;20865;43.312;27.152;2022-09-29T04:01:50;99481.53;;;21.29;50.84
34658;BME280;20865;43.312;27.152;2022-09-29T04:04:17;99474.47;;;21.32;50.93
34658;BME280;20865;43.312;27.152;2022-09-29T04:06:45;99479.40;;;21.33;50.89
34658;BME280;20865;43.312;27.152;2022-09-29T04:09:13;99478.90;;;21.33;51.17
34658;BME280;20865;43.312;27.152;2022-09-29T04:11:40;99478.05;;;21.38;51.40
34658;BME280;20865;43.312;27.152;2022-09-29T04:14:08;99471.61;;;21.39;51.75
34658;BME280;20865;43.312;27.152;2022-09-29T04:16:35;99469.98;;;21.43;52.17
34658;BME280;20865;43.312;27.152;2022-09-29T04:19:03;99473.05;;;21.44;52.33
34658;BME280;20865;43.312;27.152;2022-09-29T04:21:30;99482.65;;;21.48;52.42
34658;BME280;20865;43.312;27.152;2022-09-29T04:23:58;99475.09;;;21.51;52.45
34658;BME280;20865;43.312;27.152;2022-09-29T04:26:26;99461.92;;;21.47;52.44
34658;BME280;20865;43.312;27.152;2022-09-29T04:28:55;99476.06;;;21.56;52.46
34658;BME280;20865;43.312;27.152;2022-09-29T04:31:22;99477.42;;;21.56;52.00
34658;BME280;20865;43.312;27.152;2022-09-29T04:33:50;99481.34;;;21.57;51.91
34658;BME280;20865;43.312;27.152;2022-09-29T04:36:17;99484.66;;;21.61;51.90
34658;BME280;20865;43.312;27.152;2022-09-29T04:38:45;99487.16;;;21.58;52.10
34658;BME280;20865;43.312;27.152;2022-09-29T04:41:14;99492.09;;;21.59;52.36
34658;BME280;20865;43.312;27.152;2022-09-29T04:43:42;99495.31;;;21.58;52.59
34658;BME280;20865;43.312;27.152;2022-09-29T04:46:10;99500.88;;;21.57;52.99
34658;BME280;20865;43.312;27.152;2022-09-29T04:48:38;99500.60;;;21.60;53.17
34658;BME280;20865;43.312;27.152;2022-09-29T04:51:06;99497.85;;;21.66;53.26
34658;BME280;20865;43.312;27.152;2022-09-29T04:53:35;99499.06;;;21.67;53.35
34658;BME280;20865;43.312;27.152;2022-09-29T04:56:07;99510.28;;;21.68;53.38
34658;BME280;20865;43.312;27.152;2022-09-29T04:58:35;99506.95;;;21.70;53.61
34658;BME280;20865;43.312;27.152;2022-09-29T05:01:07;99509.90;;;21.73;53.65
34658;BME280;20865;43.312;27.152;2022-09-29T05:03:35;99516.42;;;21.76;53.89
34658;BME280;20865;43.312;27.152;2022-09-29T05:06:03;99521.94;;;21.80;54.03
34658;BME280;20865;43.312;27.152;2022-09-29T05:08:31;99528.09;;;21.82;54.04
34658;BME280;20865;43.312;27.152;2022-09-29T05:11:06;99524.98;;;21.86;54.09
34658;BME280;20865;43.312;27.152;2022-09-29T05:13:35;99528.75;;;21.89;54.18
34658;BME280;20865;43.312;27.152;2022-09-29T05:16:03;99528.48;;;21.93;54.34
34658;BME280;20865;43.312;27.152;2022-09-29T05:18:31;99527.36;;;21.95;54.60
34658;BME280;20865;43.312;27.152;2022-09-29T05:21:03;99533.38;;;21.99;54.63
34658;BME280;20865;43.312;27.152;2022-09-29T05:23:31;99527.41;;;22.05;54.63
34658;BME280;20865;43.312;27.152;2022-09-29T05:26:03;99531.56;;;22.09;54.64
34658;BME280;20865;43.312;27.152;2022-09-29T05:28:32;99538.94;;;22.12;54.75
34658;BME280;20865;43.312;27.152;2022-09-29T05:31:04;99538.55;;;22.17;54.56
34658;BME280;20865;43.312;27.152;2022-09-29T05:33:33;99553.63;;;22.21;54.63
34658;BME280;20865;43.312;27.152;2022-09-29T05:36:05;99548.88;;;22.23;54.66
34658;BME280;20865;43.312;27.152;2022-09-29T05:38:32;99542.55;;;22.28;54.59
34658;BME280;20865;43.312;27.152;2022-09-29T05:41:08;99543.59;;;22.31;54.80
34658;BME280;20865;43.312;27.152;2022-09-29T05:43:38;99546.42;;;22.35;54.75
34658;BME280;20865;43.312;27.152;2022-09-29T05:46:07;99540.78;;;22.43;54.81
34658;BME280;20865;43.312;27.152;2022-09-29T05:48:36;99537.00;;;22.49;54.63
34658;BME280;20865;43.312;27.152;2022-09-29T05:51:09;99542.75;;;22.56;54.32
34658;BME280;20865;43.312;27.152;2022-09-29T05:53:37;99547.09;;;22.63;54.24
34658;BME280;20865;43.312;27.152;2022-09-29T05:59:22;99543.37;;;22.98;53.68
34658;BME280;20865;43.312;27.152;2022-09-29T06:05:28;99538.66;;;23.67;51.90
34658;BME280;20865;43.312;27.152;2022-09-29T06:07:56;99530.61;;;24.12;50.88
34658;BME280;20865;43.312;27.152;2022-09-29T06:10:24;99531.84;;;24.55;50.52
34658;BME280;20865;43.312;27.152;2022-09-29T06:12:51;99531.14;;;24.89;49.46
34658;BME280;20865;43.312;27.152;2022-09-29T06:15:19;99532.34;;;25.22;48.41
34658;BME280;20865;43.312;27.152;2022-09-29T06:17:46;99534.13;;;25.57;47.46
34658;BME280;20865;43.312;27.152;2022-09-29T06:20:14;99539.95;;;25.80;47.23
34658;BME280;20865;43.312;27.152;2022-09-29T06:22:43;99539.19;;;26.00;46.62
34658;BME280;20865;43.312;27.152;2022-09-29T06:25:11;99541.14;;;26.12;46.95
34658;BME280;20865;43.312;27.152;2022-09-29T06:27:38;99545.02;;;26.44;46.01
34658;BME280;20865;43.312;27.152;2022-09-29T06:30:07;99538.42;;;26.58;45.72
34658;BME280;20865;43.312;27.152;2022-09-29T06:32:35;99544.42;;;26.74;45.22
34658;BME280;20865;43.312;27.152;2022-09-29T06:35:03;99543.09;;;26.78;45.47
34658;BME280;20865;43.312;27.152;2022-09-29T06:37:49;99549.39;;;26.71;45.41
34658;BME280;20865;43.312;27.152;2022-09-29T06:40:18;99543.56;;;26.57;45.83
34658;BME280;20865;43.312;27.152;2022-09-29T06:42:46;99548.33;;;26.51;46.25
34658;BME280;20865;43.312;27.152;2022-09-29T06:45:15;99548.95;;;26.45;46.12
34658;BME280;20865;43.312;27.152;2022-09-29T06:47:43;99534.40;;;26.41;46.52
34658;BME280;20865;43.312;27.152;2022-09-29T06:50:10;99531.47;;;26.34;46.68
34658;BME280;20865;43.312;27.152;2022-09-29T06:52:38;99532.84;;;26.38;47.24
34658;BME280;20865;43.312;27.152;2022-09-29T06:55:06;99526.75;;;26.48;47.29
34658;BME280;20865;43.312;27.152;2022-09-29T06:57:34;99530.02;;;26.60;47.21
34658;BME280;20865;43.312;27.152;2022-09-29T07:00:03;99534.02;;;26.90;46.43
34658;BME280;20865;43.312;27.152;2022-09-29T07:02:32;99528.59;;;27.15;46.19
34658;BME280;20865;43.312;27.152;2022-09-29T07:04:59;99534.24;;;27.21;46.21
34658;BME280;20865;43.312;27.152;2022-09-29T07:07:27;99529.63;;;27.34;45.83
34658;BME280;20865;43.312;27.152;2022-09-29T07:09:55;99530.47;;;27.35;46.15
34658;BME280;20865;43.312;27.152;2022-09-29T07:12:22;99527.88;;;27.49;44.54
34658;BME280;20865;43.312;27.152;2022-09-29T07:14:51;99527.88;;;27.49;44.54
34658;BME280;20865;43.312;27.152;2022-09-29T07:17:19;99522.38;;;27.66;44.96
34658;BME280;20865;43.312;27.152;2022-09-29T07:19:46;99530.42;;;27.75;45.08
34658;BME280;20865;43.312;27.152;2022-09-29T07:22:14;99527.48;;;27.85;45.11
34658;BME280;20865;43.312;27.152;2022-09-29T07:24:41;99526.13;;;27.73;45.05
34658;BME280;20865;43.312;27.152;2022-09-29T07:27:09;99531.80;;;27.84;45.30
34658;BME280;20865;43.312;27.152;2022-09-29T07:29:37;99529.72;;;27.90;44.81
34658;BME280;20865;43.312;27.152;2022-09-29T07:32:04;99535.69;;;28.49;43.80
34658;BME280;20865;43.312;27.152;2022-09-29T07:34:32;99540.69;;;28.33;43.63
34658;BME280;20865;43.312;27.152;2022-09-29T07:36:59;99538.14;;;28.32;43.27
34658;BME280;20865;43.312;27.152;2022-09-29T07:39:27;99540.17;;;28.34;42.68
34658;BME280;20865;43.312;27.152;2022-09-29T07:41:54;99542.91;;;28.34;42.28
34658;BME280;20865;43.312;27.152;2022-09-29T07:44:24;99542.04;;;28.37;42.37
34658;BME280;20865;43.312;27.152;2022-09-29T07:46:51;99538.33;;;28.26;42.50
34658;BME280;20865;43.312;27.152;2022-09-29T07:49:19;99542.86;;;28.11;43.73
34658;BME280;20865;43.312;27.152;2022-09-29T07:51:46;99549.07;;;28.00;45.01
34658;BME280;20865;43.312;27.152;2022-09-29T07:54:14;99544.19;;;28.19;44.04
34658;BME280;20865;43.312;27.152;2022-09-29T07:56:41;99545.83;;;28.36;41.42
34658;BME280;20865;43.312;27.152;2022-09-29T07:59:12;99548.86;;;28.54;41.23
34658;BME280;20865;43.312;27.152;2022-09-29T08:01:40;99543.94;;;28.72;40.37
34658;BME280;20865;43.312;27.152;2022-09-29T08:04:08;99538.52;;;28.87;40.72
34658;BME280;20865;43.312;27.152;2022-09-29T08:06:36;99541.31;;;29.10;40.92
34658;BME280;20865;43.312;27.152;2022-09-29T08:09:03;99537.19;;;29.29;39.72
34658;BME280;20865;43.312;27.152;2022-09-29T08:11:33;99546.31;;;29.48;39.90
34658;BME280;20865;43.312;27.152;2022-09-29T08:14:01;99545.72;;;29.61;38.69
34658;BME280;20865;43.312;27.152;2022-09-29T08:16:30;99545.90;;;29.74;39.65
34658;BME280;20865;43.312;27.152;2022-09-29T08:18:58;99541.23;;;29.94;39.27
34658;BME280;20865;43.312;27.152;2022-09-29T08:21:27;99551.44;;;30.04;38.44
34658;BME280;20865;43.312;27.152;2022-09-29T08:23:55;99548.41;;;30.13;38.58
34658;BME280;20865;43.312;27.152;2022-09-29T08:26:22;99548.51;;;30.35;37.59
34658;BME280;20865;43.312;27.152;2022-09-29T08:28:50;99540.98;;;30.44;36.58
34658;BME280;20865;43.312;27.152;2022-09-29T08:31:19;99543.64;;;30.52;37.88
34658;BME280;20865;43.312;27.152;2022-09-29T08:33:49;99546.02;;;30.55;37.41
34658;BME280;20865;43.312;27.152;2022-09-29T08:36:18;99545.38;;;30.74;38.70
34658;BME280;20865;43.312;27.152;2022-09-29T08:38:47;99548.92;;;30.94;38.09
34658;BME280;20865;43.312;27.152;2022-09-29T08:41:45;99539.59;;;31.05;37.85
34658;BME280;20865;43.312;27.152;2022-09-29T08:47:13;99532.61;;;31.20;37.68
34658;BME280;20865;43.312;27.152;2022-09-29T08:49:40;99530.29;;;31.39;37.23
34658;BME280;20865;43.312;27.152;2022-09-29T08:52:19;99525.30;;;31.38;37.05
34658;BME280;20865;43.312;27.152;2022-09-29T08:54:48;99525.73;;;31.52;37.80
34658;BME280;20865;43.312;27.152;2022-09-29T08:57:18;99519.25;;;31.67;37.67
34658;BME280;20865;43.312;27.152;2022-09-29T08:59:54;99519.98;;;31.82;37.19
34658;BME280;20865;43.312;27.152;2022-09-29T09:08:00;99526.73;;;32.08;35.21
34658;BME280;20865;43.312;27.152;2022-09-29T09:13:54;99522.48;;;32.22;33.53
34658;BME280;20865;43.312;27.152;2022-09-29T09:15:53;99518.88;;;32.29;30.63
34658;BME280;20865;43.312;27.152;2022-09-29T09:21:17;99527.39;;;32.44;31.80
34658;BME280;20865;43.312;27.152;2022-09-29T09:24:00;99526.73;;;32.42;31.90
34658;BME280;20865;43.312;27.152;2022-09-29T09:26:45;99526.45;;;32.48;31.83
34658;BME280;20865;43.312;27.152;2022-09-29T09:29:35;99526.01;;;32.44;32.25
34658;BME280;20865;43.312;27.152;2022-09-29T09:35:16;99545.57;;;32.43;31.11
34658;BME280;20865;43.312;27.152;2022-09-29T09:37:19;99539.16;;;32.42;32.71
34658;BME280;20865;43.312;27.152;2022-09-29T09:39:48;99545.22;;;32.42;32.79
34658;BME280;20865;43.312;27.152;2022-09-29T09:42:22;99542.05;;;32.45;34.00
34658;BME280;20865;43.312;27.152;2022-09-29T09:44:51;99546.32;;;32.47;32.71
34658;BME280;20865;43.312;27.152;2022-09-29T09:47:25;99537.97;;;32.58;32.59
34658;BME280;20865;43.312;27.152;2022-09-29T09:50:03;99536.95;;;32.72;31.73
34658;BME280;20865;43.312;27.152;2022-09-29T09:52:43;99532.41;;;32.82;32.98
34658;BME280;20865;43.312;27.152;2022-09-29T09:55:20;99530.61;;;32.85;30.69
34658;BME280;20865;43.312;27.152;2022-09-29T10:00:57;99529.33;;;32.94;32.07
34658;BME280;20865;43.312;27.152;2022-09-29T10:03:27;99522.64;;;32.93;32.24
34658;BME280;20865;43.312;27.152;2022-09-29T10:05:55;99516.58;;;32.93;31.79
34658;BME280;20865;43.312;27.152;2022-09-29T10:08:28;99517.78;;;33.02;31.82
34658;BME280;20865;43.312;27.152;2022-09-29T10:10:58;99519.80;;;32.97;31.72
34658;BME280;20865;43.312;27.152;2022-09-29T10:13:28;99524.70;;;33.02;31.73
34658;BME280;20865;43.312;27.152;2022-09-29T10:16:17;99517.77;;;32.95;31.50
34658;BME280;20865;43.312;27.152;2022-09-29T10:18:49;99517.95;;;32.87;31.55
34658;BME280;20865;43.312;27.152;2022-09-29T10:21:43;99520.06;;;32.91;31.65
34658;BME280;20865;43.312;27.152;2022-09-29T10:24:27;99522.75;;;32.89;32.90
34658;BME280;20865;43.312;27.152;2022-09-29T10:26:58;99518.59;;;32.89;32.82
34658;BME280;20865;43.312;27.152;2022-09-29T10:29:44;99515.00;;;32.95;30.54
34658;BME280;20865;43.312;27.152;2022-09-29T10:32:14;99522.59;;;33.10;32.51
34658;BME280;20865;43.312;27.152;2022-09-29T10:34:50;99512.94;;;33.57;30.21
34658;BME280;20865;43.312;27.152;2022-09-29T10:37:34;99507.48;;;33.26;31.41
34658;BME280;20865;43.312;27.152;2022-09-29T10:42:39;99500.45;;;33.37;31.45
34658;BME280;20865;43.312;27.152;2022-09-29T10:45:21;99505.03;;;33.47;30.92
34658;BME280;20865;43.312;27.152;2022-09-29T10:53:15;99502.05;;;33.75;31.97
34658;BME280;20865;43.312;27.152;2022-09-29T10:55:33;99503.47;;;33.69;31.37
34658;BME280;20865;43.312;27.152;2022-09-29T11:00:48;99503.54;;;33.78;31.35
34658;BME280;20865;43.312;27.152;2022-09-29T11:03:24;99506.30;;;33.84;30.05
34658;BME280;20865;43.312;27.152;2022-09-29T11:05:53;99497.79;;;33.86;29.31
34658;BME280;20865;43.312;27.152;2022-09-29T11:08:21;99496.42;;;34.22;29.58
34658;BME280;20865;43.312;27.152;2022-09-29T11:11:02;99492.56;;;34.00;30.62
34658;BME280;20865;43.312;27.152;2022-09-29T11:16:02;99487.00;;;34.07;31.89
34658;BME280;20865;43.312;27.152;2022-09-29T11:18:33;99481.97;;;34.06;31.59
34658;BME280;20865;43.312;27.152;2022-09-29T11:26:46;99477.72;;;34.10;30.33
34658;BME280;20865;43.312;27.152;2022-09-29T11:29:34;99475.25;;;34.11;30.38
34658;BME280;20865;43.312;27.152;2022-09-29T11:35:16;99476.89;;;34.03;30.40
34658;BME280;20865;43.312;27.152;2022-09-29T11:38:09;99462.63;;;34.00;30.76
34658;BME280;20865;43.312;27.152;2022-09-29T11:56:23;99440.77;;;33.94;30.30
34658;BME280;20865;43.312;27.152;2022-09-29T12:07:07;99449.94;;;33.88;30.23
34658;BME280;20865;43.312;27.152;2022-09-29T12:15:01;99444.61;;;33.37;29.89
34658;BME280;20865;43.312;27.152;2022-09-29T12:17:30;99435.97;;;33.36;30.40
34658;BME280;20865;43.312;27.152;2022-09-29T12:20:13;99449.18;;;33.41;31.82
34658;BME280;20865;43.312;27.152;2022-09-29T12:22:34;99444.49;;;33.35;31.82
34658;BME280;20865;43.312;27.152;2022-09-29T12:25:03;99443.54;;;33.58;30.90
34658;BME280;20865;43.312;27.152;2022-09-29T12:27:35;99439.92;;;33.18;30.99
34658;BME280;20865;43.312;27.152;2022-09-29T12:30:12;99433.23;;;33.10;31.26
34658;BME280;20865;43.312;27.152;2022-09-29T12:32:43;99437.70;;;33.17;31.55
34658;BME280;20865;43.312;27.152;2022-09-29T12:35:19;99438.54;;;33.25;31.10
34658;BME280;20865;43.312;27.152;2022-09-29T12:38:21;99444.91;;;33.38;31.16
34658;BME280;20865;43.312;27.152;2022-09-29T12:51:43;99439.19;;;33.27;31.19
34658;BME280;20865;43.312;27.152;2022-09-29T12:54:22;99443.00;;;33.32;31.52
34658;BME280;20865;43.312;27.152;2022-09-29T12:57:08;99436.73;;;33.34;30.65
34658;BME280;20865;43.312;27.152;2022-09-29T12:59:48;99445.34;;;33.35;31.10
34658;BME280;20865;43.312;27.152;2022-09-29T13:16:59;99436.84;;;33.30;31.11
34658;BME280;20865;43.312;27.152;2022-09-29T13:22:52;99445.98;;;33.51;30.84
34658;BME280;20865;43.312;27.152;2022-09-29T13:28:11;99446.37;;;32.94;32.10
34658;BME280;20865;43.312;27.152;2022-09-29T13:30:35;99448.27;;;32.81;30.98
34658;BME280;20865;43.312;27.152;2022-09-29T13:33:29;99442.02;;;32.89;31.29
34658;BME280;20865;43.312;27.152;2022-09-29T13:35:45;99439.56;;;32.84;30.17
34658;BME280;20865;43.312;27.152;2022-09-29T13:38:35;99445.43;;;32.85;30.84
34658;BME280;20865;43.312;27.152;2022-09-29T13:41:31;99449.15;;;32.81;31.07
34658;BME280;20865;43.312;27.152;2022-09-29T13:49:22;99443.03;;;33.06;29.12
34658;BME280;20865;43.312;27.152;2022-09-29T13:54:40;99442.74;;;32.81;29.18
34658;BME280;20865;43.312;27.152;2022-09-29T13:57:19;99440.41;;;32.84;28.11
34658;BME280;20865;43.312;27.152;2022-09-29T14:03:04;99435.40;;;32.77;27.86
34658;BME280;20865;43.312;27.152;2022-09-29T14:15:38;99439.45;;;32.68;29.50
34658;BME280;20865;43.312;27.152;2022-09-29T14:18:12;99438.06;;;32.68;29.90
34658;BME280;20865;43.312;27.152;2022-09-29T14:20:36;99437.83;;;32.63;30.21
34658;BME280;20865;43.312;27.152;2022-09-29T14:23:05;99435.70;;;32.58;29.69
34658;BME280;20865;43.312;27.152;2022-09-29T14:28:16;99426.67;;;32.54;29.32
34658;BME280;20865;43.312;27.152;2022-09-29T14:30:51;99416.46;;;32.54;29.05
34658;BME280;20865;43.312;27.152;2022-09-29T14:33:39;99422.42;;;32.58;29.18
34658;BME280;20865;43.312;27.152;2022-09-29T14:36:12;99424.34;;;32.57;28.94
34658;BME280;20865;43.312;27.152;2022-09-29T14:38:51;99421.02;;;32.51;28.54
34658;BME280;20865;43.312;27.152;2022-09-29T14:41:29;99422.27;;;32.42;28.94
34658;BME280;20865;43.312;27.152;2022-09-29T14:44:03;99428.17;;;32.39;29.33
34658;BME280;20865;43.312;27.152;2022-09-29T14:55:40;99437.61;;;32.27;29.52
34658;BME280;20865;43.312;27.152;2022-09-29T14:58:20;99439.52;;;32.26;29.75
34658;BME280;20865;43.312;27.152;2022-09-29T15:01:02;99442.38;;;32.22;29.82
34658;BME280;20865;43.312;27.152;2022-09-29T15:03:36;99440.34;;;32.20;30.20
34658;BME280;20865;43.312;27.152;2022-09-29T15:06:11;99440.94;;;32.09;30.74
34658;BME280;20865;43.312;27.152;2022-09-29T15:08:40;99443.80;;;32.05;30.81
34658;BME280;20865;43.312;27.152;2022-09-29T15:11:25;99441.41;;;31.95;30.69
34658;BME280;20865;43.312;27.152;2022-09-29T15:13:54;99445.33;;;31.97;30.59
34658;BME280;20865;43.312;27.152;2022-09-29T15:16:29;99453.39;;;31.92;30.79
34658;BME280;20865;43.312;27.152;2022-09-29T15:24:20;99446.58;;;31.88;31.02
34658;BME280;20865;43.312;27.152;2022-09-29T15:26:47;99448.20;;;31.82;30.98
34658;BME280;20865;43.312;27.152;2022-09-29T15:29:16;99455.07;;;31.75;31.71
34658;BME280;20865;43.312;27.152;2022-09-29T15:31:46;99453.64;;;31.69;31.78
34658;BME280;20865;43.312;27.152;2022-09-29T15:34:20;99460.31;;;31.64;32.28
34658;BME280;20865;43.312;27.152;2022-09-29T15:36:50;99459.20;;;31.58;32.46
34658;BME280;20865;43.312;27.152;2022-09-29T15:42:11;99460.01;;;31.52;33.60
34658;BME280;20865;43.312;27.152;2022-09-29T15:44:45;99466.01;;;31.45;34.29
34658;BME280;20865;43.312;27.152;2022-09-29T15:47:25;99470.17;;;31.34;34.19
34658;BME280;20865;43.312;27.152;2022-09-29T15:49:52;99475.11;;;31.28;33.89
34658;BME280;20865;43.312;27.152;2022-09-29T15:52:19;99479.19;;;31.21;34.39
34658;BME280;20865;43.312;27.152;2022-09-29T15:54:56;99475.56;;;31.10;34.38
34658;BME280;20865;43.312;27.152;2022-09-29T16:03:16;99493.19;;;30.88;35.34
34658;BME280;20865;43.312;27.152;2022-09-29T16:05:51;99493.44;;;30.82;35.97
34658;BME280;20865;43.312;27.152;2022-09-29T16:08:23;99501.28;;;30.74;36.58
34658;BME280;20865;43.312;27.152;2022-09-29T16:10:58;99499.57;;;30.63;36.11
34658;BME280;20865;43.312;27.152;2022-09-29T16:13:34;99509.74;;;30.62;36.30
34658;BME280;20865;43.312;27.152;2022-09-29T16:16:24;99513.27;;;30.56;36.83
34658;BME280;20865;43.312;27.152;2022-09-29T16:18:30;99521.00;;;30.82;37.85
34658;BME280;20865;43.312;27.152;2022-09-29T16:20:58;99524.12;;;30.43;38.77
34658;BME280;20865;43.312;27.152;2022-09-29T16:23:39;99526.80;;;30.36;38.68